Time;durP1;ratioP1;P1;durP2;ratioP2;P2;SDS_P1;SDS_P2;PMS_P1;PMS_P2;Temp;Humidity;BMP_temperature;BMP_pressure;BME280_temperature;BME280_humidity;BME280_pressure;Samples;Min_cycle;Max_cycle;Signal;HPM_P1;HPM_P2
2022/09/19 00:00:08;;;;;;;11.45;1.73;;;;;;;8.43;100.00;101504.31;1243057;23;20320;-77
2022/09/19 00:00:40;;;;;;;8.55;1.77;;;;;;;8.43;100.00;101511.44;1245070;23;20248;-77
2022/09/19 00:01:15;;;;;;;6.63;1.10;;;;;;;8.43;100.00;101508.78;1249525;23;20348;-77
2022/09/19 00:01:47;;;;;;;10.73;1.50;;;;;;;8.44;100.00;101508.59;1249612;23;20255;-77
2022/09/19 00:02:19;;;;;;;9.77;1.38;;;;;;;8.45;100.00;101504.13;1249557;23;20275;-77
2022/09/19 00:02:51;;;;;;;9.52;1.83;;;;;;;8.45;100.00;101504.13;1249260;23;20299;-77
2022/09/19 00:03:22;;;;;;;10.50;1.58;;;;;;;8.44;100.00;101510.44;1249528;23;20616;-77
2022/09/19 00:03:58;;;;;;;4.57;1.08;;;;;;;8.45;100.00;101506.78;1249305;23;20278;-77
2022/09/19 00:04:31;;;;;;;6.25;0.77;;;;;;;8.42;100.00;101507.97;1243572;23;20268;-77
2022/09/19 00:05:10;;;;;;;12.95;2.08;;;;;;;8.43;100.00;101498.19;1237389;24;20253;-77
2022/09/19 00:05:41;;;;;;;5.65;1.88;;;;;;;8.46;100.00;101503.09;1243548;23;20344;-77
2022/09/19 00:06:14;;;;;;;13.00;1.60;;;;;;;8.44;100.00;101505.13;1237999;24;20264;-77
2022/09/19 00:06:48;;;;;;;6.63;1.27;;;;;;;8.42;100.00;101496.53;1241614;23;20261;-77
2022/09/19 00:07:19;;;;;;;9.55;2.05;;;;;;;8.41;100.00;101502.84;1242305;23;20312;-77
2022/09/19 00:07:51;;;;;;;10.30;1.75;;;;;;;8.44;100.00;101499.81;1238772;23;20261;-77
2022/09/19 00:08:22;;;;;;;7.32;3.25;;;;;;;8.49;100.00;101503.59;1243478;23;20419;-77
2022/09/19 00:08:56;;;;;;;8.73;2.00;;;;;;;8.48;100.00;101498.44;1244459;23;20304;-77
2022/09/19 00:09:30;;;;;;;6.72;1.05;;;;;;;8.48;100.00;101493.13;1249059;23;20577;-77
2022/09/19 00:10:02;;;;;;;5.47;1.42;;;;;;;8.44;100.00;101490.03;1243498;23;20259;-77
2022/09/19 00:10:39;;;;;;;4.75;0.88;;;;;;;8.44;100.00;101499.81;1243784;23;20261;-77
2022/09/19 00:11:12;;;;;;;8.13;1.30;;;;;;;8.46;100.00;101497.81;1243494;23;20260;-77
2022/09/19 00:11:46;;;;;;;9.60;1.40;;;;;;;8.46;100.00;101495.97;1249289;23;20272;-77
2022/09/19 00:12:18;;;;;;;9.55;1.55;;;;;;;8.47;100.00;101500.28;1255458;23;20259;-77
2022/09/19 00:12:49;;;;;;;10.38;1.65;;;;;;;8.48;100.00;101496.59;1255056;23;20282;-77
2022/09/19 00:13:21;;;;;;;7.75;1.40;;;;;;;8.49;100.00;101492.13;1247894;23;20256;-77
2022/09/19 00:13:54;;;;;;;5.60;1.30;;;;;;;8.49;100.00;101489.47;1237267;24;20434;-77
2022/09/19 00:14:29;;;;;;;8.77;1.95;;;;;;;8.49;100.00;101500.09;1229805;24;20742;-77
2022/09/19 00:15:01;;;;;;;3.30;1.25;;;;;;;8.54;100.00;101492.41;1232176;24;20258;-77
2022/09/19 00:15:36;;;;;;;7.25;0.98;;;;;;;8.53;100.00;101490.75;1233438;24;20273;-77
2022/09/19 00:16:08;;;;;;;9.40;1.42;;;;;;;8.54;100.00;101490.56;1239548;23;20268;-77
2022/09/19 00:16:44;;;;;;;12.23;1.65;;;;;;;8.55;100.00;101491.41;1244524;23;20264;-77
2022/09/19 00:17:16;;;;;;;9.02;1.38;;;;;;;8.59;100.00;101488.19;1249525;23;20364;-77
2022/09/19 00:17:49;;;;;;;6.00;1.48;;;;;;;8.54;100.00;101484.44;1249487;23;20342;-77
2022/09/19 00:18:21;;;;;;;15.88;2.70;;;;;;;8.53;100.00;101488.09;1249197;23;20259;-77
2022/09/19 00:18:55;;;;;;;5.05;1.33;;;;;;;8.53;100.00;101494.25;1243542;23;20283;-77
2022/09/19 00:19:27;;;;;;;8.75;1.52;;;;;;;8.52;100.00;101492.59;1237852;24;20345;-77
2022/09/19 00:19:58;;;;;;;10.70;1.77;;;;;;;8.52;100.00;101489.13;1237518;24;20257;-77
2022/09/19 00:20:30;;;;;;;11.13;1.98;;;;;;;8.52;100.00;101491.78;1238965;23;20273;-77
2022/09/19 00:21:02;;;;;;;4.75;1.73;;;;;;;8.52;100.00;101497.91;1243474;23;20257;-77
2022/09/19 00:21:38;;;;;;;10.45;1.40;;;;;;;8.51;100.00;101492.78;1244204;23;20268;-77
2022/09/19 00:22:10;;;;;;;5.57;1.38;;;;;;;8.48;100.00;101485.97;1243237;23;20305;-77
2022/09/19 00:24:45;;;;;;;10.38;1.27;;;;;;;8.47;100.00;101486.16;1235692;24;20269;-77
2022/09/19 00:25:14;;;;;;;7.43;1.40;;;;;;;8.40;100.00;101490.59;1246917;23;20271;-77
2022/09/19 00:25:45;;;;;;;6.05;1.00;;;;;;;8.44;100.00;101487.38;1237830;24;20020;-77
2022/09/19 00:26:17;;;;;;;4.72;1.30;;;;;;;8.44;100.00;101483.88;1243764;23;20327;-77
2022/09/19 00:26:50;;;;;;;13.30;3.63;;;;;;;8.46;100.00;101488.00;1243318;23;20837;-77
2022/09/19 00:27:28;;;;;;;8.00;2.05;;;;;;;8.44;100.00;101489.19;1230038;24;20266;-77
2022/09/19 00:28:00;;;;;;;8.05;1.45;;;;;;;8.52;100.00;101491.78;1231626;24;20268;-77
2022/09/19 00:28:32;;;;;;;9.90;2.08;;;;;;;8.49;100.00;101492.13;1231516;24;20249;-77
2022/09/19 00:29:03;;;;;;;15.30;4.15;;;;;;;8.48;100.00;101483.31;1233496;23;20382;-77
2022/09/19 00:29:37;;;;;;;13.90;3.53;;;;;;;8.49;100.00;101486.81;1243304;23;20259;-77
2022/09/19 00:30:09;;;;;;;7.85;2.22;;;;;;;8.47;100.00;101484.34;1243790;23;20263;-77
2022/09/19 00:30:40;;;;;;;7.30;1.25;;;;;;;8.44;100.00;101489.19;1238474;23;20813;-77
2022/09/19 00:31:17;;;;;;;4.65;0.95;;;;;;;8.48;100.00;101490.47;1243521;23;20261;-77
2022/09/19 00:31:49;;;;;;;6.70;1.02;;;;;;;8.55;100.00;101483.44;1241705;23;20276;-77
2022/09/19 00:32:22;;;;;;;5.18;1.73;;;;;;;8.53;100.00;101488.94;1245194;23;20273;-77
2022/09/19 00:32:54;;;;;;;8.63;1.77;;;;;;;8.50;100.00;101486.66;1247238;23;20735;-77
2022/09/19 00:33:30;;;;;;;6.97;2.15;;;;;;;8.50;100.00;101493.78;1238324;23;20952;-77
2022/09/19 00:34:06;;;;;;;5.97;1.55;;;;;;;8.50;100.00;101493.78;1243719;23;20264;-77
2022/09/19 00:34:40;;;;;;;13.57;1.90;;;;;;;8.38;100.00;101489.94;1240387;23;20840;-77
2022/09/19 00:35:12;;;;;;;14.05;1.85;;;;;;;8.44;100.00;101484.72;1241229;23;20268;-77
2022/09/19 00:35:44;;;;;;;8.82;1.65;;;;;;;8.47;100.00;101483.53;1229950;24;20277;-76
2022/09/19 00:36:16;;;;;;;9.15;1.65;;;;;;;8.46;100.00;101484.53;1233108;24;20265;-77
2022/09/19 00:36:48;;;;;;;13.73;1.80;;;;;;;8.47;100.00;101486.16;1229592;24;20361;-77
2022/09/19 00:37:21;;;;;;;11.82;1.40;;;;;;;8.44;100.00;101483.88;1236052;23;20741;-77
2022/09/19 00:37:53;;;;;;;9.40;1.77;;;;;;;8.43;100.00;101487.56;1242806;23;20287;-76
2022/09/19 00:38:26;;;;;;;9.70;1.45;;;;;;;8.39;100.00;101491.59;1231060;24;20811;-77
2022/09/19 00:38:59;;;;;;;4.75;1.30;;;;;;;8.32;100.00;101491.50;1232018;24;20266;-77
2022/09/19 00:39:30;;;;;;;13.85;2.10;;;;;;;8.36;100.00;101493.63;1236504;23;20606;-77
2022/09/19 00:40:02;;;;;;;7.25;2.67;;;;;;;8.43;100.00;101492.88;1239032;23;20265;-77
2022/09/19 00:40:34;;;;;;;13.52;1.88;;;;;;;8.38;100.00;101484.63;1244632;23;20253;-77
2022/09/19 00:41:07;;;;;;;7.85;1.85;;;;;;;8.36;100.00;101492.78;1248637;23;20260;-77
2022/09/19 00:41:42;;;;;;;4.78;0.95;;;;;;;8.40;100.00;101490.59;1244527;23;20292;-77
2022/09/19 00:42:16;;;;;;;7.95;1.70;;;;;;;8.41;100.00;101492.22;1243397;23;20264;-77
2022/09/19 00:42:48;;;;;;;6.50;1.35;;;;;;;8.41;100.00;101490.41;1243861;23;20737;-77
2022/09/19 00:43:21;;;;;;;5.93;1.63;;;;;;;8.42;100.00;101496.53;1242863;23;20302;-77
2022/09/19 00:44:05;;;;;;;8.07;1.48;;;;;;;8.43;100.00;101503.47;1231154;24;20556;-77
2022/09/19 00:44:36;;;;;;;8.82;1.70;;;;;;;8.40;100.00;101490.59;1243627;23;20260;-77
2022/09/19 00:45:15;;;;;;;9.80;2.08;;;;;;;8.49;100.00;101492.13;1243083;23;20263;-77
2022/09/19 00:45:46;;;;;;;7.05;1.70;;;;;;;8.44;100.00;101502.47;1252268;23;20247;-77
2022/09/19 00:46:20;;;;;;;8.05;1.35;;;;;;;8.44;100.00;101498.00;1241241;23;20397;-76
2022/09/19 00:47:18;;;;;;;10.65;1.15;;;;;;;8.45;100.00;101494.31;1231973;24;20261;-77
2022/09/19 00:47:51;;;;;;;11.60;1.95;;;;;;;8.44;100.00;101502.47;1232024;23;20341;-76
2022/09/19 00:48:23;;;;;;;7.65;1.17;;;;;;;8.45;100.00;101496.97;1235837;23;20800;-77
2022/09/19 00:49:09;;;;;;;9.00;1.70;;;;;;;8.45;100.00;101496.16;1243046;23;20372;-76
2022/09/19 00:49:46;;;;;;;7.63;2.38;;;;;;;8.39;100.00;101499.56;1243847;23;20293;-77
2022/09/19 00:50:22;;;;;;;1.98;0.93;;;;;;;8.37;100.00;101499.75;1243436;23;20257;-77
2022/09/19 00:50:53;;;;;;;9.35;1.42;;;;;;;8.35;100.00;101502.59;1229982;24;20734;-77
2022/09/19 00:51:31;;;;;;;3.00;1.10;;;;;;;8.40;100.00;101498.56;1239822;23;20294;-77
2022/09/19 00:52:05;;;;;;;15.57;2.33;;;;;;;8.36;100.00;101498.94;1243324;23;20256;-77
2022/09/19 00:52:42;;;;;;;8.30;1.92;;;;;;;8.40;100.00;101509.16;1248357;23;20650;-77
2022/09/19 00:53:18;;;;;;;6.05;1.77;;;;;;;8.41;100.00;101510.81;1245944;23;20262;-77
2022/09/19 00:53:49;;;;;;;8.93;2.35;;;;;;;8.41;100.00;101505.50;1241699;23;20307;-77
2022/09/19 00:54:28;;;;;;;9.05;1.10;;;;;;;8.43;100.00;101508.78;1235215;24;20265;-77
2022/09/19 00:55:00;;;;;;;6.28;1.23;;;;;;;8.43;100.00;101504.31;1240966;23;20309;-77
2022/09/19 00:55:32;;;;;;;8.10;1.58;;;;;;;8.47;100.00;101504.75;1243163;23;20736;-77
2022/09/19 00:56:04;;;;;;;12.38;1.30;;;;;;;8.39;100.00;101496.91;1237138;23;20264;-77
2022/09/19 00:56:36;;;;;;;21.35;3.58;;;;;;;8.36;100.00;101508.72;1241784;23;20268;-77
2022/09/19 00:57:11;;;;;;;7.18;1.70;;;;;;;8.43;100.00;101503.47;1246903;23;20272;-77
2022/09/19 00:57:51;;;;;;;12.20;2.42;;;;;;;8.37;100.00;101502.41;1241455;23;20637;-77
2022/09/19 00:58:31;;;;;;;7.00;1.35;;;;;;;8.32;100.00;101504.75;1246080;23;20653;-76
2022/09/19 00:59:04;;;;;;;9.52;1.15;;;;;;;8.37;100.00;101510.38;1231870;24;20028;-77
2022/09/19 00:59:37;;;;;;;5.85;1.33;;;;;;;8.28;100.00;101499.00;1239543;23;20016;-77
2022/09/19 01:00:09;;;;;;;8.27;1.48;;;;;;;8.31;100.00;101495.97;1243740;23;20260;-77
2022/09/19 01:00:41;;;;;;;8.50;1.33;;;;;;;8.32;100.00;101502.09;1240554;23;20265;-77
2022/09/19 01:01:14;;;;;;;7.53;2.15;;;;;;;8.27;100.00;101507.97;1246951;23;20267;-77
2022/09/19 01:01:47;;;;;;;10.27;2.17;;;;;;;8.23;100.00;101504.06;1241306;23;20934;-77
2022/09/19 01:02:21;;;;;;;7.63;1.38;;;;;;;8.21;100.00;101503.38;1242878;23;20810;-77
2022/09/19 01:02:52;;;;;;;7.03;1.50;;;;;;;8.18;100.00;101511.72;1248793;23;20259;-77
2022/09/19 01:03:27;;;;;;;13.55;1.77;;;;;;;8.20;100.00;101504.38;1244646;23;20260;-77
2022/09/19 01:04:01;;;;;;;9.02;1.27;;;;;;;8.13;100.00;101505.31;1243229;23;20628;-76
2022/09/19 01:04:35;;;;;;;4.07;0.93;;;;;;;8.14;100.00;101509.63;1243074;23;20709;-77
2022/09/19 01:05:07;;;;;;;8.02;1.38;;;;;;;8.22;100.00;101505.06;1238119;23;20269;-77
2022/09/19 01:06:04;;;;;;;4.40;1.40;;;;;;;8.14;100.00;101505.13;1245631;23;20252;-77
2022/09/19 01:06:55;;;;;;;8.43;1.35;;;;;;;8.13;100.00;101510.63;1241152;23;20728;-77
2022/09/19 01:07:36;;;;;;;11.98;3.53;;;;;;;8.06;100.00;101507.88;1249388;23;20307;-77
2022/09/19 01:08:15;;;;;;;6.05;1.20;;;;;;;8.05;100.00;101509.72;1248887;23;20026;-77
2022/09/19 01:09:08;;;;;;;11.88;1.30;;;;;;;8.12;100.00;101520.41;1241380;23;20268;-77
2022/09/19 01:09:52;;;;;;;7.10;1.48;;;;;;;8.07;100.00;101505.06;1243134;23;20248;-77
2022/09/19 01:10:26;;;;;;;5.47;1.67;;;;;;;8.03;100.00;101509.09;1239778;23;20261;-77
2022/09/19 01:11:13;;;;;;;6.68;1.58;;;;;;;8.02;100.00;101507.44;1248983;23;20350;-77
2022/09/19 01:12:06;;;;;;;6.85;1.15;;;;;;;8.04;100.00;101504.59;1249410;23;20270;-76
2022/09/19 01:12:56;;;;;;;12.13;2.55;;;;;;;8.12;100.00;101517.75;1255681;23;20579;-76
2022/09/19 01:13:38;;;;;;;8.45;1.38;;;;;;;8.09;100.00;101512.81;1255770;23;20308;-76
2022/09/19 01:14:30;;;;;;;8.27;1.80;;;;;;;8.04;100.00;101515.22;1249351;23;20740;-77
2022/09/19 01:15:11;;;;;;;7.03;1.27;;;;;;;8.02;100.00;101511.91;1248975;23;20271;-76
2022/09/19 01:15:43;;;;;;;14.43;1.90;;;;;;;8.07;100.00;101505.06;1241823;23;20338;-76
2022/09/19 01:16:20;;;;;;;4.80;0.60;;;;;;;8.09;100.00;101512.00;1241313;23;20707;-77
2022/09/19 01:16:59;;;;;;;12.50;2.42;;;;;;;8.09;100.00;101520.78;1243203;23;20268;-77
2022/09/19 01:17:42;;;;;;;10.00;1.58;;;;;;;8.11;100.00;101515.28;1246655;23;20589;-77
2022/09/19 01:18:14;;;;;;;4.07;1.00;;;;;;;8.13;100.00;101514.09;1248502;23;20406;-77
2022/09/19 01:19:01;;;;;;;7.90;1.58;;;;;;;8.07;100.00;101510.34;1249406;23;20584;-77
2022/09/19 01:19:58;;;;;;;7.13;1.88;;;;;;;8.11;100.00;101512.63;1247206;23;20272;-77
2022/09/19 01:21:37;;;;;;;13.30;1.50;;;;;;;8.13;100.00;101519.41;1249044;23;20265;-77
2022/09/19 01:22:03;;;;;;;6.25;1.27;;;;;;;8.16;100.00;101515.56;1247090;23;20366;-77
2022/09/19 01:22:55;;;;;;;7.78;1.67;;;;;;;8.10;100.00;101519.78;1235505;24;20020;-77
2022/09/19 01:23:44;;;;;;;9.77;1.00;;;;;;;8.15;100.00;101519.22;1228503;24;20269;-76
2022/09/19 01:24:49;;;;;;;7.70;1.00;;;;;;;8.12;100.00;101517.75;1240637;23;20318;-77
2022/09/19 01:25:54;;;;;;;6.00;1.90;;;;;;;8.12;100.00;101522.25;1247600;23;20263;-77
2022/09/19 01:26:59;;;;;;;7.40;1.00;;;;;;;8.16;100.00;101526.19;1241148;23;20308;-77
2022/09/19 01:27:34;;;;;;;8.75;1.67;;;;;;;8.23;100.00;101527.94;1247125;23;20271;-77
2022/09/19 01:28:18;;;;;;;11.85;1.58;;;;;;;8.27;100.00;101521.25;1242280;23;20527;-77
2022/09/19 01:29:12;;;;;;;7.93;1.48;;;;;;;8.32;100.00;101524.16;1241292;23;20865;-77
2022/09/19 01:29:47;;;;;;;8.05;1.67;;;;;;;8.28;100.00;101528.19;1250852;23;20255;-77
2022/09/19 01:30:19;;;;;;;6.40;1.85;;;;;;;8.28;100.00;101525.53;1240912;23;20264;-76
2022/09/19 01:31:18;;;;;;;11.70;3.20;;;;;;;8.29;100.00;101529.84;1239844;23;20290;-77
2022/09/19 01:31:54;;;;;;;5.20;2.38;;;;;;;8.32;100.00;101523.34;1241326;23;20283;-77
2022/09/19 01:32:34;;;;;;;12.40;2.60;;;;;;;8.31;100.00;101527.81;1247475;23;20268;-77
2022/09/19 01:33:10;;;;;;;8.98;1.25;;;;;;;8.32;100.00;101529.47;1248995;23;20256;-76
2022/09/19 01:34:05;;;;;;;8.13;1.23;;;;;;;8.32;100.00;101526.81;1245601;23;20444;-77
2022/09/19 01:34:46;;;;;;;10.07;1.67;;;;;;;8.33;100.00;101525.84;1238069;23;20265;-77
2022/09/19 01:35:24;;;;;;;11.23;1.88;;;;;;;8.29;100.00;101527.19;1253072;23;20271;-77
2022/09/19 01:35:57;;;;;;;7.57;2.03;;;;;;;8.26;100.00;101530.22;1247182;23;20043;-76
2022/09/19 01:36:34;;;;;;;7.55;1.42;;;;;;;8.27;100.00;101523.91;1241469;23;20612;-77
2022/09/19 01:37:12;;;;;;;7.82;1.45;;;;;;;8.31;100.00;101527.81;1249032;23;20592;-77
2022/09/19 01:37:50;;;;;;;7.05;1.25;;;;;;;8.32;100.00;101524.16;1250516;23;20272;-76
2022/09/19 01:38:27;;;;;;;9.05;0.90;;;;;;;8.32;100.00;101523.34;1241281;23;20280;-77
2022/09/19 01:39:01;;;;;;;13.23;1.77;;;;;;;8.33;100.00;101531.16;1235492;24;20284;-77
2022/09/19 01:39:40;;;;;;;11.77;1.50;;;;;;;8.34;100.00;101527.50;1241261;23;20273;-76
2022/09/19 01:40:13;;;;;;;10.65;1.30;;;;;;;8.30;100.00;101522.72;1247178;23;20275;-77
2022/09/19 01:40:56;;;;;;;5.50;1.20;;;;;;;8.25;100.00;101523.25;1241984;23;20276;-76
2022/09/19 01:41:28;;;;;;;17.08;1.98;;;;;;;8.25;100.00;101520.63;1241365;23;20280;-77
2022/09/19 01:42:01;;;;;;;4.60;1.00;;;;;;;8.24;100.00;101518.97;1235631;24;20273;-77
2022/09/19 01:42:32;;;;;;;7.07;1.02;;;;;;;8.25;100.00;101523.25;1237976;23;20261;-77
2022/09/19 01:43:12;;;;;;;11.82;1.27;;;;;;;8.27;100.00;101518.59;1248072;23;20267;-77
2022/09/19 01:43:43;;;;;;;9.15;1.27;;;;;;;8.24;100.00;101521.63;1248985;23;20299;-77
2022/09/19 01:44:17;;;;;;;5.03;1.52;;;;;;;8.35;100.00;101518.50;1241576;23;20276;-77
2022/09/19 01:44:53;;;;;;;9.27;2.25;;;;;;;8.29;100.00;101521.88;1238689;23;20787;-77
2022/09/19 01:45:30;;;;;;;8.82;1.65;;;;;;;8.29;100.00;101519.22;1241339;23;20283;-76
2022/09/19 01:46:23;;;;;;;6.05;1.10;;;;;;;8.37;100.00;101520.97;1247471;23;20299;-77
2022/09/19 01:47:20;;;;;;;8.98;1.63;;;;;;;8.27;100.00;101521.25;1235485;24;20678;-76
2022/09/19 01:47:57;;;;;;;12.55;1.73;;;;;;;8.27;100.00;101521.25;1236069;23;20012;-76
2022/09/19 01:49:06;;;;;;;7.07;1.35;;;;;;;8.31;100.00;101522.53;1235847;23;20280;-76
2022/09/19 01:50:16;;;;;;;2.97;1.17;;;;;;;8.27;100.00;101520.44;1247505;23;20745;-77
2022/09/19 01:50:53;;;;;;;6.75;1.55;;;;;;;8.28;100.00;101522.91;1253222;23;20267;-77
2022/09/19 01:51:32;;;;;;;6.97;1.45;;;;;;;8.33;100.00;101517.03;1253327;23;20270;-76
2022/09/19 01:52:09;;;;;;;6.63;1.75;;;;;;;8.28;100.00;101522.06;1247358;23;20279;-77
2022/09/19 01:53:07;;;;;;;13.43;1.95;;;;;;;8.30;100.00;101525.34;1242896;23;20279;-77
2022/09/19 01:54:33;;;;;;;10.73;1.95;;;;;;;8.37;100.00;101528.94;1243085;23;20260;-77
2022/09/19 01:55:18;;;;;;;15.88;2.13;;;;;;;8.40;100.00;101520.63;1245297;23;20773;-77
2022/09/19 01:56:19;;;;;;;6.75;1.27;;;;;;;8.47;100.00;101526.00;1246693;23;20027;-76
2022/09/19 01:57:19;;;;;;;4.97;0.90;;;;;;;8.52;100.00;101528.94;1242659;23;20819;-76
2022/09/19 01:58:20;;;;;;;10.52;1.08;;;;;;;8.48;100.00;101527.63;1241257;23;20744;-76
2022/09/19 01:59:09;;;;;;;8.85;1.02;;;;;;;8.45;100.00;101528.00;1240544;23;20075;-77
2022/09/19 01:59:52;;;;;;;5.57;1.52;;;;;;;8.49;100.00;101521.31;1232420;24;20368;-77
2022/09/19 02:00:26;;;;;;;9.98;1.27;;;;;;;8.46;100.00;101524.34;1224240;24;20754;-77
2022/09/19 02:01:12;;;;;;;9.57;1.85;;;;;;;8.50;100.00;101528.31;1231205;24;20727;-77
2022/09/19 02:01:50;;;;;;;9.93;2.20;;;;;;;8.45;100.00;101528.00;1235449;24;20280;-77
2022/09/19 02:03:03;;;;;;;16.38;1.52;;;;;;;8.54;100.00;101526.94;1242429;23;20256;-77
2022/09/19 02:03:46;;;;;;;7.85;1.48;;;;;;;8.51;100.00;101527.31;1244166;23;20419;-76
2022/09/19 02:04:28;;;;;;;15.25;1.98;;;;;;;8.42;100.00;101533.69;1247029;23;20275;-77
2022/09/19 02:06:02;;;;;;;5.43;1.02;;;;;;;8.51;100.00;101527.31;1242850;23;20024;-77
2022/09/19 02:06:51;;;;;;;9.60;1.50;;;;;;;8.55;100.00;101523.25;1229124;24;20343;-77
2022/09/19 02:07:27;;;;;;;9.63;1.63;;;;;;;8.51;100.00;101532.59;1235157;24;20269;-77
2022/09/19 02:08:04;;;;;;;11.27;3.13;;;;;;;8.49;100.00;101530.13;1234874;24;20273;-77
2022/09/19 02:08:47;;;;;;;14.00;1.27;;;;;;;8.55;100.00;101523.25;1224393;24;20300;-77
2022/09/19 02:09:38;;;;;;;6.45;1.40;;;;;;;8.57;100.00;101518.59;1241056;23;20283;-77
2022/09/19 02:10:21;;;;;;;7.57;2.08;;;;;;;8.51;100.00;101525.47;1236097;23;20276;-77
2022/09/19 02:10:57;;;;;;;11.20;2.03;;;;;;;8.47;100.00;101531.31;1247083;23;20275;-77
2022/09/19 02:11:33;;;;;;;8.10;1.60;;;;;;;8.53;100.00;101522.63;1252789;23;20271;-77
2022/09/19 02:12:07;;;;;;;10.32;1.40;;;;;;;8.50;100.00;101523.81;1254378;23;20260;-77
2022/09/19 02:12:42;;;;;;;8.35;1.60;;;;;;;8.51;100.00;101524.66;1255019;23;20266;-77
2022/09/19 02:13:27;;;;;;;11.52;1.65;;;;;;;8.50;100.00;101531.78;1253049;23;20278;-77
2022/09/19 02:14:17;;;;;;;9.15;1.05;;;;;;;8.56;100.00;101524.91;1241085;23;20954;-77
2022/09/19 02:14:54;;;;;;;8.05;1.60;;;;;;;8.61;100.00;101530.47;1241129;23;20276;-77
2022/09/19 02:15:35;;;;;;;9.73;2.17;;;;;;;8.66;100.00;101528.06;1235733;23;20313;-77
2022/09/19 02:16:13;;;;;;;6.65;1.30;;;;;;;8.63;100.00;101526.63;1241234;23;20050;-77
2022/09/19 02:16:58;;;;;;;8.80;1.77;;;;;;;8.67;100.00;101527.06;1236951;23;20741;-77
2022/09/19 02:17:34;;;;;;;13.60;1.77;;;;;;;8.64;100.00;101524.78;1229846;24;20265;-76
2022/09/19 02:18:10;;;;;;;10.38;1.35;;;;;;;8.66;100.00;101530.72;1240639;23;20620;-77
2022/09/19 02:18:54;;;;;;;5.47;1.30;;;;;;;8.64;100.00;101527.44;1241152;23;20404;-77
2022/09/19 02:19:32;;;;;;;8.07;1.30;;;;;;;8.68;100.00;101521.56;1234480;24;20307;-77
2022/09/19 02:20:09;;;;;;;9.52;1.50;;;;;;;8.67;100.00;101527.06;1236761;24;20409;-77
2022/09/19 02:20:42;;;;;;;6.68;1.40;;;;;;;8.66;100.00;101525.41;1240792;23;20271;-77
2022/09/19 02:21:23;;;;;;;9.73;1.75;;;;;;;8.68;100.00;101523.41;1238953;23;20298;-77
2022/09/19 02:22:00;;;;;;;9.35;1.45;;;;;;;8.66;100.00;101522.75;1240655;23;20267;-77
2022/09/19 02:22:35;;;;;;;10.23;2.08;;;;;;;8.63;100.00;101525.78;1229840;24;20270;-76
2022/09/19 02:23:23;;;;;;;10.25;2.13;;;;;;;8.72;100.00;101527.31;1239550;23;20610;-77
2022/09/19 02:23:59;;;;;;;4.95;2.25;;;;;;;8.72;100.00;101529.97;1246993;23;20291;-77
2022/09/19 02:24:33;;;;;;;7.18;2.13;;;;;;;8.75;100.00;101534.91;1248736;23;20263;-77
2022/09/19 02:25:14;;;;;;;8.43;0.93;;;;;;;8.74;100.00;101532.44;1255138;23;20255;-77
2022/09/19 02:25:47;;;;;;;7.38;1.40;;;;;;;8.76;100.00;101536.56;1250721;23;20272;-77
2022/09/19 02:26:21;;;;;;;5.72;1.70;;;;;;;8.67;100.00;101533.19;1255060;23;20771;-77
2022/09/19 02:27:20;;;;;;;3.72;2.53;;;;;;;8.62;100.00;101530.28;1243177;23;20466;-76
2022/09/19 02:27:56;;;;;;;14.32;1.90;;;;;;;8.63;100.00;101537.25;1241270;23;20420;-77
2022/09/19 02:28:33;;;;;;;10.20;2.78;;;;;;;8.63;100.00;101537.25;1240516;23;20275;-77
2022/09/19 02:29:08;;;;;;;13.30;1.98;;;;;;;8.61;100.00;101538.44;1247121;23;20276;-77
2022/09/19 02:29:46;;;;;;;10.65;1.73;;;;;;;8.55;100.00;101540.00;1241018;23;20272;-77
2022/09/19 02:30:20;;;;;;;14.05;1.40;;;;;;;8.53;100.00;101536.72;1241301;23;20276;-77
2022/09/19 02:30:53;;;;;;;8.02;1.70;;;;;;;8.51;100.00;101549.34;1240973;23;20303;-77
2022/09/19 02:31:26;;;;;;;8.63;1.15;;;;;;;8.48;100.00;101543.56;1246124;23;20617;-77
2022/09/19 02:32:00;;;;;;;6.05;1.05;;;;;;;8.50;100.00;101544.25;1247325;23;20275;-77
2022/09/19 02:32:35;;;;;;;11.52;1.35;;;;;;;8.50;100.00;101542.41;1235251;24;20417;-77
2022/09/19 02:33:09;;;;;;;6.70;1.30;;;;;;;8.51;100.00;101548.53;1234631;24;20269;-77
2022/09/19 02:33:44;;;;;;;7.53;1.88;;;;;;;8.56;100.00;101540.84;1235006;24;20269;-77
2022/09/19 02:34:17;;;;;;;4.93;1.70;;;;;;;8.55;100.00;101539.19;1235217;24;20367;-77
2022/09/19 02:34:49;;;;;;;10.98;1.70;;;;;;;8.51;100.00;101544.06;1241271;23;20276;-77
2022/09/19 02:35:36;;;;;;;20.63;2.50;;;;;;;8.47;100.00;101545.41;1241286;23;20300;-77
2022/09/19 02:36:34;;;;;;;11.40;1.88;;;;;;;8.53;100.00;101541.22;1235084;23;20340;-76
2022/09/19 02:37:18;;;;;;;9.27;1.63;;;;;;;8.57;100.00;101545.13;1241193;23;20276;-76
2022/09/19 02:37:59;;;;;;;4.75;1.60;;;;;;;8.57;100.00;101537.16;1238339;23;20342;-77
2022/09/19 02:38:38;;;;;;;13.13;1.30;;;;;;;8.58;100.00;101542.28;1241603;23;20272;-76
2022/09/19 02:39:26;;;;;;;7.85;1.30;;;;;;;8.62;100.00;101540.09;1246953;23;20280;-76
2022/09/19 02:40:07;;;;;;;6.88;1.40;;;;;;;8.58;100.00;101549.44;1228995;24;20107;-77
2022/09/19 02:41:02;;;;;;;14.65;2.95;;;;;;;8.60;100.00;101544.75;1235446;24;20022;-77
2022/09/19 02:41:48;;;;;;;3.45;0.80;;;;;;;8.54;100.00;101548.16;1242284;23;20614;-77
2022/09/19 02:42:23;;;;;;;7.85;1.77;;;;;;;8.50;100.00;101549.56;1241504;23;20365;-77
2022/09/19 02:42:58;;;;;;;12.82;1.35;;;;;;;8.49;100.00;101555.84;1249043;23;20632;-77
2022/09/19 02:43:36;;;;;;;11.60;2.05;;;;;;;8.53;100.00;101551.84;1236483;23;20302;-77
2022/09/19 02:44:19;;;;;;;7.88;1.83;;;;;;;8.51;100.00;101551.19;1239188;23;20364;-77
2022/09/19 02:45:17;;;;;;;6.25;1.10;;;;;;;8.60;100.00;101548.25;1234279;23;20269;-76
2022/09/19 02:46:04;;;;;;;12.38;2.10;;;;;;;8.56;100.00;101549.63;1241063;23;20276;-77
2022/09/19 02:46:54;;;;;;;10.00;1.30;;;;;;;8.58;100.00;101549.44;1238474;23;20276;-77
2022/09/19 02:47:32;;;;;;;11.23;1.63;;;;;;;8.54;100.00;101542.84;1235268;24;20024;-77
2022/09/19 02:48:35;;;;;;;7.78;1.23;;;;;;;8.55;100.00;101549.81;1248441;23;20260;-77
2022/09/19 02:49:12;;;;;;;9.77;1.50;;;;;;;8.53;100.00;101557.97;1255057;23;20278;-76
2022/09/19 02:49:49;;;;;;;9.57;2.75;;;;;;;8.59;100.00;101551.09;1245068;23;20275;-76
2022/09/19 02:50:30;;;;;;;12.05;2.08;;;;;;;8.63;100.00;101555.84;1246812;23;20287;-77
2022/09/19 02:51:19;;;;;;;7.88;1.45;;;;;;;8.60;100.00;101558.88;1244689;23;20447;-77
2022/09/19 02:51:54;;;;;;;6.68;1.58;;;;;;;8.64;100.00;101554.00;1255025;23;20711;-77
2022/09/19 02:52:32;;;;;;;15.90;2.35;;;;;;;8.60;100.00;101558.03;1247292;23;20326;-77
2022/09/19 02:53:16;;;;;;;5.30;1.33;;;;;;;8.55;100.00;101555.94;1241060;23;20400;-77
2022/09/19 02:53:57;;;;;;;2.92;1.13;;;;;;;8.56;100.00;101554.94;1235158;23;20594;-77
2022/09/19 02:54:34;;;;;;;5.55;1.80;;;;;;;8.53;100.00;101557.13;1246795;23;20315;-76
2022/09/19 02:55:13;;;;;;;7.35;1.52;;;;;;;8.52;100.00;101555.50;1240641;23;20031;-76
2022/09/19 02:55:50;;;;;;;6.85;1.80;;;;;;;8.51;100.00;101554.66;1241156;23;20265;-76
2022/09/19 02:56:28;;;;;;;8.38;1.40;;;;;;;8.45;100.00;101555.38;1247346;23;20260;-76
2022/09/19 02:57:04;;;;;;;9.00;2.42;;;;;;;8.46;100.00;101557.03;1245275;23;20676;-77
2022/09/19 02:57:37;;;;;;;8.88;2.25;;;;;;;8.45;100.00;101559.88;1237229;23;20272;-76
2022/09/19 02:58:09;;;;;;;8.10;2.45;;;;;;;8.42;100.00;101553.09;1240915;23;20792;-77
2022/09/19 02:58:55;;;;;;;7.63;1.77;;;;;;;8.54;100.00;101556.13;1241387;23;20855;-77
2022/09/19 02:59:35;;;;;;;6.00;1.27;;;;;;;8.46;100.00;101556.22;1243271;23;20259;-77
2022/09/19 03:00:07;;;;;;;14.77;2.53;;;;;;;8.44;100.00;101556.41;1235328;23;20273;-77
2022/09/19 03:00:51;;;;;;;10.38;1.45;;;;;;;8.40;100.00;101556.94;1235022;24;20277;-76
2022/09/19 03:01:29;;;;;;;10.88;2.10;;;;;;;8.32;100.00;101550.72;1229453;24;20274;-77
2022/09/19 03:02:10;;;;;;;10.02;1.50;;;;;;;8.33;100.00;101555.03;1237071;24;20646;-76
2022/09/19 03:02:45;;;;;;;10.32;2.38;;;;;;;8.43;100.00;101559.25;1248416;23;20251;-76
2022/09/19 03:04:15;;;;;;;3.90;0.93;;;;;;;8.30;100.00;101552.72;1253198;23;20278;-77